Binghamton, NY

1:00 PM EST on December 09, 2016 (GMT -0500)
Binghamton Regional-Link | | Change Station

Elev 1634 ft 42.21 °N, 75.98 °W | Updated 7 minutes ago

Light Snow
Light Snow Mist
22 °F
Feels Like 8 °F
N
17
Wind Variable Wind from NNW
Gusts 24 mph

Today
High -- | Low -- °F
--% Chance of Precip.
Yesterday
High -- | Low -- °F
Precip. -- in
Pressure 30.16 in
Visibility 1.2 miles
Clouds Mostly Cloudy 1500 ft
Mostly Cloudy 2200 ft
Overcast 2700 ft
Windchill 8 °F
Dew Point 18 °F
Humidity 85%
Rainfall 0.08 in
Snow Depth Not available.
7:21 AM 4:31 PM
Waxing Gibbous, 76% visible
METAR KBGM 091753Z 34015G21KT 1 1/4SM -SN BR BKN015 BKN022 OVC027 M06/M08 A3009 RMK AO2 TWR VIS 2 1/2 SLP213 P0001 60003 T10561078 11039 21056 53002
Pressure 30.16 in
Visibility 1.2 miles
Clouds Mostly Cloudy 1500 ft
Mostly Cloudy 2200 ft
Overcast 2700 ft
Windchill 8 °F
Dew Point 18 °F
Humidity 85%
Rainfall 0.08 in
Snow Depth Not available.
7:21 AM 4:31 PM
Waxing Gibbous, 76% visible
METAR KBGM 091753Z 34015G21KT 1 1/4SM -SN BR BKN015 BKN022 OVC027 M06/M08 A3009 RMK AO2 TWR VIS 2 1/2 SLP213 P0001 60003 T10561078 11039 21056 53002

10-Day Weather Forecast

Almanac

Astronomy

Dec. 09, 2016 Rise Set
Actual Time
Civil Twilight
Nautical Twilight
Astronomical Twilight
Moon
Length of Visible Light
Length of Day
Tomorrow will be .
, % of the Moon is Illuminated

Today's Extremes

State Highs State Lows

Community

WunderPhotos

Upload Photos

1,956,499 photos uploaded!

WunderBlog® & News

Nearby

Air Quality

  Air Quality AQ Index Pollutant
Not available.

Snow Depth

Station Depth Elevation

Earthquake Activity

City Distance Mag. Time & Date
Minimum magnitude displayed is 2.5.

Coastal Water Temperatures

Place Temperature

Stations

Nearby Weather Stations

Station Location Temp. Windchill Dew Point Humidity Wind Precip. Elev Updated Type
                   

Watches & Warnings

There are currently no watches in effect.